createdAt,value
2018-06-18T00:02:13.168Z,101730.11
2018-06-18T00:04:42.089Z,101731.80
2018-06-18T00:07:11.025Z,101736.44
2018-06-18T00:09:39.902Z,101743.28
2018-06-18T00:12:09.459Z,101736.44
2018-06-18T00:14:38.583Z,101719.79
2018-06-18T00:17:08.128Z,101716.59
2018-06-18T00:19:37.376Z,101711.37
2018-06-18T00:22:08.575Z,101709.58
2018-06-18T00:24:37.811Z,101711.59
2018-06-18T00:27:07.276Z,101710.05
2018-06-18T00:29:36.143Z,101703.86
2018-06-18T00:32:05.616Z,101696.38
2018-06-18T00:34:35.144Z,101693.10
2018-06-18T00:37:04.096Z,101694.00
2018-06-18T00:39:33.715Z,101685.94
2018-06-18T00:42:02.989Z,101686.33
2018-06-18T00:44:32.237Z,101693.55
2018-06-18T00:47:01.630Z,101692.89
2018-06-18T00:49:30.936Z,101690.62
2018-06-18T00:52:00.199Z,101683.89
2018-06-18T00:54:30.000Z,101679.04
2018-06-18T00:56:59.248Z,101677.59
2018-06-18T00:59:28.524Z,101678.70
2018-06-18T01:01:57.807Z,101677.15
2018-06-18T01:04:27.210Z,101683.72
2018-06-18T01:06:56.259Z,101678.90
2018-06-18T01:09:25.763Z,101683.63
2018-06-18T01:11:54.936Z,101691.00
2018-06-18T01:14:24.764Z,101690.71
2018-06-18T01:16:54.469Z,101686.36
2018-06-18T01:19:24.089Z,101675.98
2018-06-18T01:21:53.040Z,101674.39
2018-06-18T01:24:38.625Z,101667.58
2018-06-18T01:27:07.914Z,101676.08
2018-06-18T01:29:36.865Z,101677.58
2018-06-18T01:32:06.129Z,101677.39
2018-06-18T01:34:35.021Z,101681.29
2018-06-18T01:37:04.818Z,101671.01
2018-06-18T01:39:33.827Z,101662.31
2018-06-18T01:42:02.763Z,101662.16
2018-06-18T01:44:32.187Z,101664.77
2018-06-18T01:47:01.124Z,101665.70
2018-06-18T01:49:30.754Z,101668.88
2018-06-18T01:52:00.046Z,101654.00
2018-06-18T01:54:29.454Z,101662.98
2018-06-18T01:56:59.104Z,101644.73
2018-06-18T01:59:27.973Z,101651.33
2018-06-18T02:01:58.026Z,101643.75
2018-06-18T02:04:27.947Z,101645.61
2018-06-18T02:06:57.511Z,101654.17
2018-06-18T02:09:26.598Z,101660.19
2018-06-18T02:11:55.875Z,101669.48
2018-06-18T02:14:24.810Z,101666.76
2018-06-18T02:16:54.841Z,101666.44
2018-06-18T02:19:23.814Z,101666.16
2018-06-18T02:21:52.768Z,101665.33
2018-06-18T02:24:22.100Z,101667.52
2018-06-18T02:26:56.590Z,101673.45
2018-06-18T02:29:30.925Z,101671.30
2018-06-18T02:32:08.325Z,101663.43
2018-06-18T02:34:42.423Z,101675.39
2018-06-18T02:37:16.859Z,101673.20
2018-06-18T02:40:52.451Z,101666.32
2018-06-18T02:43:22.312Z,101670.41
2018-06-18T02:45:51.617Z,101669.30
2018-06-18T02:48:20.517Z,101666.01
2018-06-18T02:50:49.444Z,101669.88
2018-06-18T02:53:19.057Z,101671.72
2018-06-18T02:55:49.477Z,101677.42
2018-06-18T02:58:19.928Z,101679.84
2018-06-18T03:00:49.598Z,101679.78
2018-06-18T03:03:19.050Z,101672.33
2018-06-18T03:05:48.363Z,101669.28
2018-06-18T03:08:18.711Z,101673.83
2018-06-18T03:10:47.673Z,101670.05
2018-06-18T03:13:16.785Z,101668.63
2018-06-18T03:15:46.179Z,101666.38
2018-06-18T03:18:20.197Z,101659.49
2018-06-18T03:20:54.320Z,101664.89
2018-06-18T03:23:28.700Z,101661.36
2018-06-18T03:26:02.742Z,101662.09
2018-06-18T03:28:37.401Z,101666.70
2018-06-18T03:31:06.799Z,101667.80
2018-06-18T03:33:36.714Z,101667.48
2018-06-18T03:36:07.228Z,101672.62
2018-06-18T03:38:36.238Z,101678.34
2018-06-18T03:41:05.478Z,101674.25
2018-06-18T03:43:37.097Z,101680.27
2018-06-18T03:46:06.929Z,101672.56
2018-06-18T03:48:35.833Z,101689.12
2018-06-18T03:51:04.783Z,101680.69
2018-06-18T03:53:34.007Z,101687.95
2018-06-18T03:56:03.501Z,101687.58
2018-06-18T03:58:32.881Z,101682.27
2018-06-18T04:02:15.651Z,101676.69
2018-06-18T04:04:53.952Z,101678.23
2018-06-18T04:07:29.176Z,101683.70
2018-06-18T04:10:04.093Z,101679.61
2018-06-18T04:12:33.647Z,101670.63
2018-06-18T04:15:03.005Z,101675.45
2018-06-18T04:17:32.199Z,101675.70
2018-06-18T04:20:01.202Z,101676.74
2018-06-18T04:22:35.996Z,101678.36
2018-06-18T04:25:05.000Z,101685.41
2018-06-18T04:27:34.441Z,101685.59
2018-06-18T04:30:03.824Z,101679.81
2018-06-18T04:32:33.120Z,101686.83
2018-06-18T04:35:05.529Z,101681.63
2018-06-18T04:37:35.666Z,101679.20
2018-06-18T04:40:05.536Z,101684.16
2018-06-18T04:42:39.939Z,101678.45
2018-06-18T04:45:14.274Z,101684.41
2018-06-18T04:47:48.988Z,101688.51
2018-06-18T04:50:23.612Z,101685.46
2018-06-18T04:52:53.145Z,101675.11
2018-06-18T04:55:22.789Z,101676.48
2018-06-18T04:57:52.168Z,101679.42
2018-06-18T05:00:28.512Z,101672.06
2018-06-18T05:02:57.515Z,101667.72
2018-06-18T05:05:26.605Z,101668.58
2018-06-18T05:09:06.217Z,101673.17
2018-06-18T05:11:35.941Z,101670.13
2018-06-18T05:14:05.265Z,101672.28
2018-06-18T05:16:34.384Z,101670.38
2018-06-18T05:19:03.864Z,101665.64
2018-06-18T05:21:32.786Z,101660.30
2018-06-18T05:24:01.819Z,101667.34
2018-06-18T05:26:31.437Z,101669.42
2018-06-18T05:29:00.815Z,101662.03
2018-06-18T05:31:30.866Z,101660.52
2018-06-18T05:33:59.926Z,101659.66
2018-06-18T05:36:29.643Z,101664.80
2018-06-18T05:38:58.637Z,101664.41
2018-06-18T05:41:27.977Z,101660.56
2018-06-18T05:43:57.688Z,101663.11
2018-06-18T05:46:27.208Z,101666.95
2018-06-18T05:48:56.471Z,101664.23
2018-06-18T05:51:25.993Z,101658.52
2018-06-18T05:53:55.661Z,101660.70
2018-06-18T05:56:25.913Z,101656.42
2018-06-18T05:58:54.922Z,101657.72
2018-06-18T06:01:23.949Z,101656.53
2018-06-18T06:03:53.730Z,101651.30
2018-06-18T06:06:23.309Z,101650.50
2018-06-18T06:08:52.540Z,101661.28
2018-06-18T06:11:21.896Z,101659.98
2018-06-18T06:13:51.209Z,101655.39
2018-06-18T06:16:20.427Z,101662.00
2018-06-18T06:18:49.582Z,101663.58
2018-06-18T06:21:18.455Z,101660.49
2018-06-18T06:23:47.801Z,101668.05
2018-06-18T06:26:16.629Z,101669.09
2018-06-18T06:28:45.560Z,101665.78
2018-06-18T06:31:14.523Z,101667.40
2018-06-18T06:33:43.361Z,101671.67
2018-06-18T06:36:13.255Z,101673.36
2018-06-18T06:38:42.985Z,101676.82
2018-06-18T06:41:12.755Z,101675.95
2018-06-18T06:43:42.071Z,101680.27
2018-06-18T06:46:10.913Z,101677.53
2018-06-18T06:48:40.113Z,101678.91
2018-06-18T06:51:09.831Z,101678.77
2018-06-18T06:53:39.340Z,101688.43
2018-06-18T06:56:08.642Z,101687.24
2018-06-18T06:58:37.775Z,101686.02
2018-06-18T07:01:07.310Z,101688.93
2018-06-18T07:03:36.522Z,101697.05
2018-06-18T07:06:05.866Z,101698.50
2018-06-18T07:08:34.885Z,101705.52
2018-06-18T07:11:03.862Z,101707.27
2018-06-18T07:13:33.090Z,101703.81
2018-06-18T07:16:02.406Z,101704.31
2018-06-18T07:18:31.360Z,101699.56
2018-06-18T07:21:00.601Z,101696.67
2018-06-18T07:23:29.722Z,101698.61
2018-06-18T07:25:59.266Z,101702.81
2018-06-18T07:28:28.245Z,101700.63
2018-06-18T07:30:57.997Z,101693.34
2018-06-18T07:33:27.235Z,101705.58
2018-06-18T07:35:56.622Z,101693.76
2018-06-18T07:38:26.296Z,101699.70
2018-06-18T07:40:55.428Z,101700.11
2018-06-18T07:43:24.335Z,101694.95
2018-06-18T07:45:53.702Z,101686.98
2018-06-18T07:48:22.824Z,101689.53
2018-06-18T07:50:51.680Z,101684.80
2018-06-18T07:53:20.844Z,101684.38
2018-06-18T07:55:49.992Z,101690.31
2018-06-18T07:58:19.505Z,101683.39
2018-06-18T08:00:48.419Z,101680.56
2018-06-18T08:03:17.620Z,101688.95
2018-06-18T08:05:46.594Z,101685.21
2018-06-18T08:08:16.299Z,101679.56
2018-06-18T08:10:46.077Z,101679.31
2018-06-18T08:13:15.593Z,101687.02
2018-06-18T08:15:44.570Z,101684.48
2018-06-18T08:18:13.586Z,101670.39
2018-06-18T08:20:43.429Z,101665.77
2018-06-18T08:23:12.843Z,101672.69
2018-06-18T08:25:42.245Z,101672.90
2018-06-18T08:28:11.259Z,101678.17
2018-06-18T08:30:40.531Z,101666.69
2018-06-18T08:33:10.122Z,101676.43
2018-06-18T08:35:39.334Z,101686.42
2018-06-18T08:38:08.457Z,101687.48
2018-06-18T08:40:38.002Z,101685.04
2018-06-18T08:43:07.336Z,101684.17
2018-06-18T08:45:36.794Z,101690.17
2018-06-18T08:48:06.293Z,101687.81
2018-06-18T08:50:40.411Z,101694.23
2018-06-18T08:53:14.362Z,101689.83
2018-06-18T08:55:48.970Z,101685.88
2018-06-18T08:58:23.520Z,101692.47
2018-06-18T09:00:57.833Z,101690.46
2018-06-18T09:03:27.201Z,101687.08
2018-06-18T09:06:01.767Z,101690.30
2018-06-18T09:08:40.315Z,101689.55
2018-06-18T09:11:09.638Z,101693.12
2018-06-18T09:13:39.069Z,101693.05
2018-06-18T09:16:08.724Z,101690.44
2018-06-18T09:18:38.268Z,101692.86
2018-06-18T09:21:08.043Z,101693.91
2018-06-18T09:23:37.126Z,101697.51
2018-06-18T09:26:06.413Z,101690.77
2018-06-18T09:28:36.032Z,101693.41
2018-06-18T09:31:05.356Z,101692.59
2018-06-18T09:33:34.914Z,101694.98
2018-06-18T09:36:04.538Z,101692.03
2018-06-18T09:38:34.246Z,101691.34
2018-06-18T09:41:03.456Z,101698.89
2018-06-18T09:43:33.027Z,101697.19
2018-06-18T09:46:01.975Z,101705.10
2018-06-18T09:48:36.623Z,101704.53
2018-06-18T09:51:11.115Z,101712.80
2018-06-18T09:53:45.068Z,101705.58
2018-06-18T09:56:19.324Z,101702.13
2018-06-18T09:58:53.436Z,101702.60
2018-06-18T10:01:27.725Z,101701.91
2018-06-18T10:03:56.987Z,101704.66
2018-06-18T10:06:26.967Z,101707.63
2018-06-18T10:09:01.046Z,101705.80
2018-06-18T10:11:30.491Z,101704.66
2018-06-18T10:13:59.590Z,101709.70
2018-06-18T10:16:28.621Z,101706.95
2018-06-18T10:18:57.653Z,101713.36
2018-06-18T10:21:26.726Z,101705.77
2018-06-18T10:23:56.025Z,101705.66
2018-06-18T10:26:25.781Z,101714.14
2018-06-18T10:28:54.907Z,101715.41
2018-06-18T10:31:24.464Z,101710.57
2018-06-18T10:33:58.383Z,101720.20
2018-06-18T10:36:32.860Z,101716.89
2018-06-18T10:39:06.993Z,101715.52
2018-06-18T10:41:40.942Z,101720.09
2018-06-18T10:44:09.924Z,101714.27
2018-06-18T10:46:39.040Z,101710.80
2018-06-18T10:49:08.371Z,101717.92
2018-06-18T10:51:38.097Z,101720.55
2018-06-18T10:54:07.208Z,101714.94
2018-06-18T10:56:36.010Z,101719.06
2018-06-18T10:59:05.117Z,101720.20
2018-06-18T11:01:34.529Z,101719.53
2018-06-18T11:04:04.380Z,101715.17
2018-06-18T11:06:33.857Z,101722.05
2018-06-18T11:09:02.786Z,101721.70
2018-06-18T11:11:31.800Z,101725.36
2018-06-18T11:14:00.625Z,101717.21
2018-06-18T11:16:29.908Z,101717.88
2018-06-18T11:19:04.090Z,101721.19
2018-06-18T11:21:38.531Z,101718.67
2018-06-18T11:24:12.746Z,101720.83
2018-06-18T11:26:46.575Z,101717.47
2018-06-18T11:29:15.705Z,101721.53
2018-06-18T11:31:44.571Z,101723.77
2018-06-18T11:34:13.812Z,101731.22
2018-06-18T11:36:42.653Z,101734.00
2018-06-18T11:39:11.808Z,101728.69
2018-06-18T11:41:40.665Z,101720.03
2018-06-18T11:44:10.181Z,101735.23
2018-06-18T11:46:39.841Z,101739.74
2018-06-18T11:49:08.588Z,101732.01
2018-06-18T11:51:37.791Z,101723.89
2018-06-18T11:54:06.878Z,101726.34
2018-06-18T11:56:36.044Z,101728.39
2018-06-18T11:59:10.374Z,101725.44
2018-06-18T12:01:44.215Z,101720.47
2018-06-18T12:04:18.645Z,101724.91
2018-06-18T12:06:52.612Z,101728.66
2018-06-18T12:09:28.524Z,101725.17
2018-06-18T12:11:57.768Z,101718.45
2018-06-18T12:14:27.221Z,101728.97
2018-06-18T12:16:56.527Z,101729.34
2018-06-18T12:19:25.944Z,101722.61
2018-06-18T12:21:55.361Z,101721.59
2018-06-18T12:24:25.201Z,101725.86
2018-06-18T12:26:54.184Z,101719.78
2018-06-18T12:29:23.729Z,101722.45
2018-06-18T12:31:53.403Z,101712.63
2018-06-18T12:34:22.775Z,101718.08
2018-06-18T12:36:52.216Z,101716.44
2018-06-18T12:39:21.614Z,101710.52
2018-06-18T12:41:57.922Z,101709.80
2018-06-18T12:44:27.035Z,101710.02
2018-06-18T12:47:01.856Z,101707.27
2018-06-18T12:49:36.509Z,101707.06
2018-06-18T12:52:11.063Z,101707.25
2018-06-18T12:54:45.372Z,101705.23
2018-06-18T12:57:14.780Z,101711.45
2018-06-18T12:59:43.986Z,101702.02
2018-06-18T13:02:22.084Z,101707.02
2018-06-18T13:04:56.693Z,101705.16
2018-06-18T13:07:26.624Z,101704.15
2018-06-18T13:09:57.305Z,101697.37
2018-06-18T13:12:26.723Z,101697.20
2018-06-18T13:14:55.858Z,101691.92
2018-06-18T13:17:25.190Z,101695.19
2018-06-18T13:19:54.355Z,101696.84
2018-06-18T13:22:23.660Z,101706.64
2018-06-18T13:24:53.559Z,101696.42
2018-06-18T13:27:26.524Z,101703.73
2018-06-18T13:29:55.703Z,101702.61
2018-06-18T13:32:25.128Z,101701.13
2018-06-18T13:34:54.549Z,101707.14
2018-06-18T13:37:28.579Z,101705.44
2018-06-18T13:42:05.035Z,101696.38
2018-06-18T13:44:39.170Z,101683.10
2018-06-18T13:47:13.310Z,101690.33
2018-06-18T13:49:48.118Z,101696.20
2018-06-18T13:52:17.229Z,101694.59
2018-06-18T13:54:46.628Z,101698.47
2018-06-18T13:57:15.567Z,101688.09
2018-06-18T13:59:44.928Z,101680.36
2018-06-18T14:02:13.946Z,101677.86
2018-06-18T14:04:43.304Z,101681.96
2018-06-18T14:07:12.900Z,101686.86
2018-06-18T14:09:41.930Z,101686.20
2018-06-18T14:12:11.404Z,101686.69
2018-06-18T14:14:40.663Z,101689.45
2018-06-18T14:17:09.849Z,101693.22
2018-06-18T14:19:43.791Z,101697.00
2018-06-18T14:22:12.814Z,101698.08
2018-06-18T14:24:42.082Z,101699.36
2018-06-18T14:27:11.450Z,101695.13
2018-06-18T14:29:45.903Z,101695.44
2018-06-18T14:32:20.555Z,101705.88
2018-06-18T14:34:54.692Z,101707.28
2018-06-18T14:37:29.587Z,101707.69
2018-06-18T14:40:03.983Z,101710.00
2018-06-18T14:42:33.050Z,101718.66
2018-06-18T14:45:02.033Z,101714.54
2018-06-18T14:47:31.219Z,101721.73
2018-06-18T14:50:00.558Z,101721.15
2018-06-18T14:52:29.697Z,101727.16
2018-06-18T14:54:59.136Z,101728.56
2018-06-18T14:57:28.315Z,101720.22
2018-06-18T15:00:04.207Z,101724.00
2018-06-18T15:02:33.098Z,101732.43
2018-06-18T15:05:01.964Z,101721.66
2018-06-18T15:07:31.533Z,101720.31
2018-06-18T15:10:00.354Z,101721.22
2018-06-18T15:12:32.199Z,101721.34
2018-06-18T15:15:06.248Z,101722.72
2018-06-18T15:17:35.785Z,101718.67
2018-06-18T15:20:05.342Z,101721.66
2018-06-18T15:22:34.473Z,101710.45
2018-06-18T15:25:06.923Z,101714.89
2018-06-18T15:27:36.071Z,101713.99
2018-06-18T15:30:05.276Z,101723.98
2018-06-18T15:32:34.473Z,101719.14
2018-06-18T15:35:11.649Z,101724.30
2018-06-18T15:37:41.137Z,101727.16
2018-06-18T15:40:10.477Z,101720.41
2018-06-18T15:42:39.432Z,101723.03
2018-06-18T15:45:15.622Z,101718.67
2018-06-18T15:47:45.370Z,101723.03
2018-06-18T15:50:14.373Z,101723.62
2018-06-18T15:52:44.170Z,101723.15
2018-06-18T15:55:13.760Z,101704.90
2018-06-18T15:57:43.840Z,101723.58
2018-06-18T16:00:12.780Z,101725.78
2018-06-18T16:02:41.794Z,101724.06
2018-06-18T16:05:11.042Z,101716.03
2018-06-18T16:07:40.310Z,101718.94
2018-06-18T16:10:09.332Z,101733.14
2018-06-18T16:12:38.580Z,101742.22
2018-06-18T16:15:07.475Z,101731.56
2018-06-18T16:17:36.946Z,101732.47
2018-06-18T16:20:06.481Z,101725.04
2018-06-18T16:22:35.563Z,101732.95
2018-06-18T16:25:04.969Z,101737.63
2018-06-18T16:27:34.023Z,101737.55
2018-06-18T16:30:03.123Z,101732.36
2018-06-18T16:32:32.398Z,101725.27
2018-06-18T16:35:01.496Z,101725.16
2018-06-18T16:37:31.192Z,101732.03
2018-06-18T16:40:00.031Z,101722.08
2018-06-18T16:42:29.989Z,101720.12
2018-06-18T16:44:59.835Z,101723.92
2018-06-18T16:47:28.849Z,101724.23
2018-06-18T16:49:58.333Z,101714.48
2018-06-18T16:52:27.348Z,101718.17
2018-06-18T16:54:56.312Z,101717.84
2018-06-18T16:57:25.683Z,101729.63
2018-06-18T16:59:55.087Z,101725.05
2018-06-18T17:02:24.701Z,101719.80
2018-06-18T17:04:53.604Z,101711.19
2018-06-18T17:07:23.553Z,101722.77
2018-06-18T17:09:52.819Z,101723.20
2018-06-18T17:12:22.469Z,101725.17
2018-06-18T17:14:52.714Z,101728.59
2018-06-18T17:17:21.786Z,101727.09
2018-06-18T17:19:51.083Z,101731.34
2018-06-18T17:22:20.049Z,101734.68
2018-06-18T17:24:50.069Z,101733.08
2018-06-18T17:27:19.505Z,101745.69
2018-06-18T17:30:01.902Z,101746.83
2018-06-18T17:32:31.386Z,101732.84
2018-06-18T17:35:01.198Z,101735.59
2018-06-18T17:37:31.101Z,101736.95
2018-06-18T17:40:00.524Z,101731.45
2018-06-18T17:42:29.627Z,101729.64
2018-06-18T17:44:58.531Z,101739.70
2018-06-18T17:47:28.120Z,101735.13
2018-06-18T17:49:57.201Z,101736.50
2018-06-18T17:52:26.193Z,101743.39
2018-06-18T17:54:56.296Z,101744.75
2018-06-18T17:57:25.326Z,101724.59
2018-06-18T17:59:54.649Z,101726.30
2018-06-18T18:02:23.487Z,101724.81
2018-06-18T18:04:56.977Z,101732.71
2018-06-18T18:07:28.349Z,101731.34
2018-06-18T18:09:57.302Z,101729.53
2018-06-18T18:12:26.636Z,101739.72
2018-06-18T18:14:55.952Z,101725.27
2018-06-18T18:17:25.226Z,101735.92
2018-06-18T18:19:54.147Z,101739.27
2018-06-18T18:22:23.609Z,101738.47
2018-06-18T18:24:52.504Z,101737.88
2018-06-18T18:27:22.513Z,101735.71
2018-06-18T18:29:52.137Z,101734.45
2018-06-18T18:32:21.980Z,101734.23
2018-06-18T18:34:51.772Z,101738.58
2018-06-18T18:37:20.984Z,101728.48
2018-06-18T18:39:50.453Z,101739.94
2018-06-18T18:42:20.058Z,101745.41
2018-06-18T18:44:49.210Z,101748.62
2018-06-18T18:47:18.396Z,101745.87
2018-06-18T18:49:47.266Z,101750.34
2018-06-18T18:52:16.216Z,101751.82
2018-06-18T18:56:01.619Z,101746.09
2018-06-18T18:58:54.552Z,101752.52
2018-06-18T19:01:24.169Z,101751.83
2018-06-18T19:03:55.511Z,101746.20
2018-06-18T19:06:24.536Z,101740.81
2018-06-18T19:08:54.120Z,101744.46
2018-06-18T19:11:23.294Z,101746.39
2018-06-18T19:13:52.256Z,101751.58
2018-06-18T19:16:21.803Z,101747.39
2018-06-18T19:18:54.037Z,101754.95
2018-06-18T19:21:23.141Z,101758.80
2018-06-18T19:23:52.008Z,101751.70
2018-06-18T19:26:21.246Z,101758.32
2018-06-18T19:28:50.933Z,101766.42
2018-06-18T19:31:22.557Z,101766.42
2018-06-18T19:33:57.676Z,101758.77
2018-06-18T19:36:27.185Z,101767.66
2018-06-18T19:38:56.164Z,101768.98
2018-06-18T19:41:25.482Z,101769.53
2018-06-18T19:43:55.131Z,101772.81
2018-06-18T19:46:30.596Z,101772.42
2018-06-18T19:49:07.221Z,101766.58
2018-06-18T19:51:36.638Z,101762.90
2018-06-18T19:54:08.630Z,101771.09
2018-06-18T19:56:37.978Z,101771.03
2018-06-18T19:59:07.518Z,101775.03
2018-06-18T20:01:36.648Z,101780.69
2018-06-18T20:04:05.593Z,101784.50
2018-06-18T20:06:35.583Z,101787.13
2018-06-18T20:09:06.927Z,101779.78
2018-06-18T20:11:36.481Z,101786.28
2018-06-18T20:14:05.560Z,101794.54
2018-06-18T20:16:35.106Z,101798.84
2018-06-18T20:19:04.677Z,101797.31
2018-06-18T20:21:33.685Z,101802.09
2018-06-18T20:24:02.740Z,101801.73
2018-06-18T20:26:31.803Z,101804.56
2018-06-18T20:29:00.802Z,101798.34
2018-06-18T20:31:29.906Z,101807.14
2018-06-18T20:33:59.239Z,101806.98
2018-06-18T20:36:28.407Z,101799.77
2018-06-18T20:38:57.642Z,101808.88
2018-06-18T20:41:27.201Z,101813.31
2018-06-18T20:44:09.654Z,101812.61
2018-06-18T20:46:39.309Z,101807.46
2018-06-18T20:49:10.697Z,101805.27
2018-06-18T20:51:39.790Z,101804.23
2018-06-18T20:54:09.249Z,101806.35
2018-06-18T20:56:38.477Z,101812.80
2018-06-18T20:59:09.048Z,101806.03
2018-06-18T21:01:38.374Z,101808.31
2018-06-18T21:04:08.397Z,101813.96
2018-06-18T21:06:37.734Z,101807.03
2018-06-18T21:09:10.879Z,101807.75
2018-06-18T21:11:40.578Z,101813.97
2018-06-18T21:14:10.881Z,101813.34
2018-06-18T21:16:42.796Z,101812.93
2018-06-18T21:19:11.803Z,101816.55
2018-06-18T21:21:41.216Z,101816.95
2018-06-18T21:24:10.408Z,101821.25
2018-06-18T21:26:39.447Z,101809.31
2018-06-18T21:29:09.000Z,101817.72
2018-06-18T21:31:38.255Z,101818.92
2018-06-18T21:34:07.075Z,101820.11
2018-06-18T21:36:36.766Z,101821.64
2018-06-18T21:39:07.888Z,101828.81
2018-06-18T21:41:37.506Z,101820.59
2018-06-18T21:44:08.929Z,101821.72
2018-06-18T21:46:38.362Z,101827.84
2018-06-18T21:49:07.535Z,101821.33
2018-06-18T21:51:36.970Z,101827.92
2018-06-18T21:54:06.545Z,101824.47
2018-06-18T21:56:35.914Z,101822.94
2018-06-18T21:59:04.912Z,101820.59
2018-06-18T22:01:44.858Z,101816.89
2018-06-18T22:04:15.302Z,101814.48
2018-06-18T22:06:45.232Z,101820.83
2018-06-18T22:09:18.036Z,101816.33
2018-06-18T22:11:52.117Z,101807.15
2018-06-18T22:14:21.915Z,101813.24
2018-06-18T22:16:51.167Z,101801.33
2018-06-18T22:19:20.271Z,101804.31
2018-06-18T22:21:49.801Z,101810.44
2018-06-18T22:24:18.901Z,101812.42
2018-06-18T22:26:48.132Z,101805.91
2018-06-18T22:29:17.850Z,101803.21
2018-06-18T22:31:47.256Z,101800.73
2018-06-18T22:34:16.790Z,101790.66
2018-06-18T22:36:45.692Z,101795.26
2018-06-18T22:39:14.768Z,101788.38
2018-06-18T22:41:44.295Z,101787.48
2018-06-18T22:44:13.307Z,101791.28
2018-06-18T22:46:42.451Z,101785.56
2018-06-18T22:49:11.696Z,101779.52
2018-06-18T22:51:41.795Z,101782.33
2018-06-18T22:54:11.451Z,101789.78
2018-06-18T22:56:40.810Z,101778.05
2018-06-18T22:59:10.504Z,101777.72
2018-06-18T23:01:40.650Z,101783.16
2018-06-18T23:04:10.124Z,101782.91
2018-06-18T23:06:39.403Z,101784.27
2018-06-18T23:09:10.866Z,101770.84
2018-06-18T23:11:40.472Z,101776.78
2018-06-18T23:14:13.215Z,101778.15
2018-06-18T23:16:42.893Z,101776.23
2018-06-18T23:19:12.816Z,101774.30
2018-06-18T23:21:42.585Z,101777.61
2018-06-18T23:24:12.516Z,101781.93
2018-06-18T23:26:42.916Z,101779.19
2018-06-18T23:29:14.242Z,101777.20
2018-06-18T23:31:44.333Z,101780.41
2018-06-18T23:34:13.852Z,101771.41
2018-06-18T23:36:42.757Z,101770.61
2018-06-18T23:39:12.599Z,101768.67
2018-06-18T23:41:46.243Z,101766.27
2018-06-18T23:44:15.349Z,101769.00
2018-06-18T23:46:44.646Z,101766.19
2018-06-18T23:49:17.824Z,101762.63
2018-06-18T23:51:46.933Z,101755.78
2018-06-18T23:54:16.850Z,101759.02
2018-06-18T23:56:46.292Z,101753.95
2018-06-18T23:59:15.287Z,101747.91
